Time;durP1;ratioP1;P1;durP2;ratioP2;P2;SDS_P1;SDS_P2;PMS_P1;PMS_P2;Temp;Humidity;BMP_temperature;BMP_pressure;BME280_temperature;BME280_humidity;BME280_pressure;Samples;Min_cycle;Max_cycle;Signal;HPM_P1;HPM_P2
2021/05/08 00:01:39;;;;;;;3.10;2.10;;;3.80;99.90;;;;;;5048645;28;20180;-69
2021/05/08 00:04:07;;;;;;;2.88;2.50;;;3.80;99.90;;;;;;5049821;28;20196;-70
2021/05/08 00:06:34;;;;;;;2.50;1.70;;;3.70;99.90;;;;;;5049089;28;20211;-69
2021/05/08 00:09:05;;;;;;;2.70;2.17;;;3.70;99.90;;;;;;5048827;28;20197;-69
2021/05/08 00:11:33;;;;;;;2.97;2.40;;;3.70;99.90;;;;;;5049028;28;20638;-69
2021/05/08 00:14:01;;;;;;;2.63;2.42;;;3.70;99.90;;;;;;5048871;28;20181;-69
2021/05/08 00:16:28;;;;;;;3.00;2.33;;;3.70;99.90;;;;;;5048323;28;20185;-68
2021/05/08 00:18:56;;;;;;;2.72;2.35;;;3.70;99.90;;;;;;5048137;28;20218;-69
2021/05/08 00:21:23;;;;;;;4.35;2.72;;;3.70;99.90;;;;;;5047743;28;20205;-67
2021/05/08 00:23:51;;;;;;;2.42;2.22;;;3.60;99.90;;;;;;5047886;28;20185;-68
2021/05/08 00:26:18;;;;;;;2.95;2.75;;;3.60;99.90;;;;;;5048224;28;20614;-68
2021/05/08 00:28:45;;;;;;;2.20;1.92;;;3.60;99.90;;;;;;5047634;28;20215;-68
2021/05/08 00:31:12;;;;;;;2.50;2.25;;;3.60;99.90;;;;;;5048039;28;20174;-68
2021/05/08 00:33:40;;;;;;;3.65;2.83;;;3.60;99.90;;;;;;5047760;28;20691;-68
2021/05/08 00:36:09;;;;;;;2.72;2.30;;;3.60;99.90;;;;;;5051224;28;20612;-68
2021/05/08 00:38:36;;;;;;;4.03;3.67;;;3.50;99.90;;;;;;5051672;28;20283;-68
2021/05/08 00:41:03;;;;;;;2.75;2.40;;;3.50;99.90;;;;;;5051620;28;20176;-68
2021/05/08 00:43:31;;;;;;;5.75;2.60;;;3.40;99.90;;;;;;5051405;28;20572;-68
2021/05/08 00:45:58;;;;;;;4.07;3.30;;;3.30;99.90;;;;;;5051460;28;20165;-68
2021/05/08 00:48:28;;;;;;;2.35;2.08;;;3.30;99.90;;;;;;5050639;28;20224;-68
2021/05/08 00:50:55;;;;;;;2.47;2.10;;;3.30;99.90;;;;;;5052320;28;20177;-68
2021/05/08 00:53:23;;;;;;;3.60;3.22;;;3.30;99.90;;;;;;5052566;28;20231;-69
2021/05/08 00:55:51;;;;;;;3.40;3.08;;;3.30;99.90;;;;;;5050997;28;20683;-68
2021/05/08 00:58:19;;;;;;;2.60;2.40;;;3.40;99.90;;;;;;5071457;22;20274;-71
2021/05/08 01:00:48;;;;;;;3.80;2.60;;;3.30;99.90;;;;;;5077904;28;20294;-71
2021/05/08 01:03:15;;;;;;;5.80;3.15;;;3.30;99.90;;;;;;5109256;28;20229;-71
2021/05/08 01:05:43;;;;;;;3.42;2.75;;;3.40;99.90;;;;;;5116871;28;20186;-71
2021/05/08 01:08:15;;;;;;;6.78;3.65;;;3.30;99.90;;;;;;5116611;28;20202;-70
2021/05/08 01:10:44;;;;;;;3.08;2.50;;;3.20;99.90;;;;;;5115280;28;20673;-70
2021/05/08 01:13:11;;;;;;;5.07;3.97;;;3.20;99.90;;;;;;5114402;28;20207;-71
2021/05/08 01:15:40;;;;;;;3.08;2.65;;;3.20;99.90;;;;;;5113170;28;20190;-71
2021/05/08 01:18:08;;;;;;;3.20;2.90;;;3.20;99.90;;;;;;5114529;28;20167;-70
2021/05/08 01:20:36;;;;;;;5.47;4.10;;;3.20;99.90;;;;;;5112826;28;20207;-71
2021/05/08 01:23:04;;;;;;;3.20;2.70;;;3.20;99.90;;;;;;5113937;28;20199;-70
2021/05/08 01:25:32;;;;;;;4.00;3.60;;;3.20;99.90;;;;;;5114405;28;20199;-69
2021/05/08 01:28:01;;;;;;;5.32;2.40;;;3.10;99.90;;;;;;5114382;28;20195;-70
2021/05/08 01:30:35;;;;;;;6.45;4.10;;;3.20;99.90;;;;;;5113289;28;20270;-70
2021/05/08 01:33:08;;;;;;;4.25;3.30;;;3.20;99.90;;;;;;5129883;27;20216;-72
2021/05/08 01:35:36;;;;;;;5.55;3.85;;;3.20;99.90;;;;;;5112848;28;20274;-70
2021/05/08 01:38:05;;;;;;;7.68;4.38;;;3.20;99.90;;;;;;5113983;28;20182;-70
2021/05/08 01:40:35;;;;;;;5.07;3.75;;;3.10;99.90;;;;;;5114052;28;20206;-70
2021/05/08 01:43:06;;;;;;;2.95;2.50;;;3.10;99.90;;;;;;5112540;28;20635;-71
2021/05/08 01:45:33;;;;;;;4.28;3.88;;;3.10;99.90;;;;;;5114198;28;20635;-70
2021/05/08 01:48:07;;;;;;;3.17;2.70;;;3.10;99.90;;;;;;5112244;28;20207;-71
2021/05/08 01:50:35;;;;;;;5.18;2.42;;;3.10;99.90;;;;;;5112726;28;20183;-69
2021/05/08 01:53:03;;;;;;;3.53;3.22;;;3.20;99.90;;;;;;5113012;28;20198;-69
2021/05/08 01:55:32;;;;;;;5.13;3.78;;;3.10;99.90;;;;;;5113530;28;20267;-71
2021/05/08 01:58:09;;;;;;;5.00;3.60;;;3.20;99.90;;;;;;5112158;28;20175;-71
2021/05/08 02:00:43;;;;;;;5.10;4.60;;;3.10;99.90;;;;;;5112007;28;20576;-70
2021/05/08 02:03:12;;;;;;;6.65;3.17;;;3.20;99.90;;;;;;5112088;28;20215;-70
2021/05/08 02:05:41;;;;;;;2.97;2.67;;;3.20;99.90;;;;;;5113490;28;20183;-71
2021/05/08 02:08:26;;;;;;;3.95;3.30;;;3.10;99.90;;;;;;5113673;28;20209;-70
2021/05/08 02:10:55;;;;;;;5.30;3.50;;;3.00;99.90;;;;;;5112339;28;20681;-70
2021/05/08 02:13:22;;;;;;;5.93;4.03;;;3.00;99.90;;;;;;5112715;28;20206;-70
2021/05/08 02:15:49;;;;;;;6.75;3.72;;;3.00;99.90;;;;;;5113105;28;20183;-69
2021/05/08 02:18:17;;;;;;;3.28;2.97;;;2.90;99.90;;;;;;5113382;28;20178;-70
2021/05/08 02:20:45;;;;;;;3.75;3.45;;;2.90;99.90;;;;;;5128886;27;20244;-70
2021/05/08 02:23:17;;;;;;;7.60;3.10;;;2.80;99.90;;;;;;5111694;28;20271;-70
2021/05/08 02:25:49;;;;;;;4.95;3.22;;;2.90;99.90;;;;;;5111749;28;20207;-70
2021/05/08 02:28:19;;;;;;;4.10;3.60;;;2.90;99.90;;;;;;5113231;28;20194;-69
2021/05/08 02:30:46;;;;;;;4.78;4.25;;;2.90;99.90;;;;;;5112654;28;20206;-70
2021/05/08 02:33:21;;;;;;;3.38;3.08;;;3.00;99.90;;;;;;5112168;28;20206;-72
2021/05/08 02:35:48;;;;;;;4.93;3.03;;;3.00;99.90;;;;;;5114664;28;20186;-68
2021/05/08 02:38:15;;;;;;;2.85;2.30;;;3.00;99.90;;;;;;5113061;28;20182;-69
2021/05/08 02:40:43;;;;;;;5.90;3.58;;;3.00;99.90;;;;;;5114093;28;20186;-72
2021/05/08 02:43:11;;;;;;;4.28;3.13;;;3.00;99.90;;;;;;5116025;28;20270;-73
2021/05/08 02:45:41;;;;;;;3.50;2.40;;;3.00;99.90;;;;;;5112306;28;20275;-71
2021/05/08 02:48:09;;;;;;;3.85;2.92;;;2.90;99.90;;;;;;5113310;28;20199;-70
2021/05/08 02:50:44;;;;;;;3.90;3.20;;;2.90;99.90;;;;;;5112893;28;20171;-69
2021/05/08 02:53:12;;;;;;;4.53;3.67;;;2.90;99.90;;;;;;5110792;28;20217;-69
2021/05/08 02:55:40;;;;;;;5.25;3.47;;;2.90;99.90;;;;;;5110992;28;20202;-70
2021/05/08 02:58:07;;;;;;;4.22;3.65;;;2.90;99.90;;;;;;5109794;28;20244;-71
2021/05/08 03:00:37;;;;;;;7.07;3.75;;;2.80;99.90;;;;;;5110700;28;20194;-70
2021/05/08 03:03:11;;;;;;;2.35;1.95;;;2.90;99.90;;;;;;5110813;28;20228;-70
2021/05/08 03:05:40;;;;;;;5.38;4.53;;;2.90;99.90;;;;;;5112248;28;20193;-70
2021/05/08 03:08:15;;;;;;;3.42;3.13;;;2.90;99.90;;;;;;5111149;28;20213;-71
2021/05/08 03:10:43;;;;;;;4.80;4.10;;;2.90;99.90;;;;;;5110887;28;20198;-72
2021/05/08 03:13:12;;;;;;;5.60;3.80;;;2.80;99.90;;;;;;5110662;28;20765;-72
2021/05/08 03:15:41;;;;;;;3.25;2.80;;;2.80;99.90;;;;;;5111225;28;20195;-72
2021/05/08 03:18:10;;;;;;;4.03;3.20;;;2.90;99.90;;;;;;5110594;28;20194;-71
2021/05/08 03:20:38;;;;;;;8.07;3.20;;;2.90;99.90;;;;;;5110307;28;20235;-72
2021/05/08 03:23:05;;;;;;;3.28;2.75;;;2.80;99.90;;;;;;5112431;28;20574;-72
2021/05/08 03:25:33;;;;;;;3.80;3.03;;;2.90;99.90;;;;;;5112480;28;20167;-72
2021/05/08 03:28:01;;;;;;;6.68;4.43;;;2.90;99.90;;;;;;5110793;28;20207;-71
2021/05/08 03:30:31;;;;;;;5.00;3.58;;;2.90;99.90;;;;;;5112115;28;20524;-71
2021/05/08 03:33:02;;;;;;;4.78;4.32;;;3.00;99.90;;;;;;5127506;27;20210;-71
2021/05/08 03:35:31;;;;;;;3.90;2.78;;;3.00;99.90;;;;;;5110720;28;20194;-72
2021/05/08 03:37:58;;;;;;;12.20;4.00;;;3.00;99.90;;;;;;5111965;28;20179;-70
2021/05/08 03:40:25;;;;;;;5.07;3.70;;;3.00;99.90;;;;;;5111784;28;20194;-71
2021/05/08 03:42:53;;;;;;;5.68;4.20;;;3.30;99.90;;;;;;5112009;28;20207;-70
2021/05/08 03:45:20;;;;;;;6.20;3.67;;;3.60;99.90;;;;;;5111854;28;20186;-70
2021/05/08 03:47:47;;;;;;;5.05;3.97;;;3.90;99.90;;;;;;5111669;28;20174;-71
2021/05/08 03:50:14;;;;;;;4.57;4.05;;;4.00;99.90;;;;;;5111320;28;20194;-71
2021/05/08 03:52:43;;;;;;;3.83;3.35;;;4.10;99.90;;;;;;5111515;28;20205;-71
2021/05/08 03:55:10;;;;;;;5.70;4.45;;;4.40;99.90;;;;;;5111386;28;20187;-72
2021/05/08 03:57:37;;;;;;;6.53;3.80;;;5.00;99.90;;;;;;5111819;28;20254;-70
2021/05/08 04:00:06;;;;;;;8.40;3.45;;;5.70;99.90;;;;;;5114084;28;20190;-71
2021/05/08 04:02:39;;;;;;;4.65;3.58;;;6.50;99.90;;;;;;5111319;28;20232;-71
2021/05/08 04:05:07;;;;;;;5.60;3.42;;;7.20;99.90;;;;;;5112874;28;20202;-70
2021/05/08 04:07:34;;;;;;;1.95;1.75;;;7.90;99.90;;;;;;5114612;28;20568;-70
2021/05/08 04:10:02;;;;;;;3.40;2.13;;;8.50;74.40;;;;;;5114660;28;20175;-70
2021/05/08 04:12:30;;;;;;;2.30;1.90;;;9.10;99.90;;;;;;5116765;28;20318;-71
2021/05/08 04:14:57;;;;;;;3.33;2.90;;;9.60;99.90;;;;;;5116933;28;20170;-70
2021/05/08 04:17:24;;;;;;;3.00;2.67;;;10.30;99.90;;;;;;5117317;28;20223;-70
2021/05/08 04:19:53;;;;;;;3.95;1.83;;;10.90;99.90;;;;;;5116457;28;20179;-71
2021/05/08 04:22:20;;;;;;;2.55;2.05;;;11.40;58.00;;;;;;5115762;28;20214;-71
2021/05/08 04:24:48;;;;;;;2.90;2.63;;;12.00;27.50;;;;;;5114431;28;20194;-71
2021/05/08 04:27:16;;;;;;;2.55;2.35;;;12.40;14.40;;;;;;5117751;28;20686;-71
2021/05/08 04:29:43;;;;;;;3.03;2.00;;;12.60;9.50;;;;;;5115072;28;20290;-71
2021/05/08 04:32:10;;;;;;;2.13;1.80;;;12.70;1.00;;;;;;5114949;28;20698;-69
2021/05/08 04:34:37;;;;;;;3.92;3.00;;;13.10;1.00;;;;;;5113563;28;20197;-71
2021/05/08 04:37:05;;;;;;;3.28;2.88;;;13.30;1.00;;;;;;5115282;28;20663;-70
2021/05/08 04:39:32;;;;;;;2.80;2.40;;;13.80;1.00;;;;;;5115149;28;20186;-70
2021/05/08 04:42:00;;;;;;;2.45;2.10;;;14.30;1.00;;;;;;5114952;28;20255;-70
2021/05/08 04:44:28;;;;;;;1.75;1.60;;;14.80;1.00;;;;;;5115494;28;20611;-70
2021/05/08 04:46:55;;;;;;;2.57;2.10;;;15.40;1.00;;;;;;5115201;28;20185;-71
2021/05/08 04:49:22;;;;;;;1.73;1.40;;;15.90;1.00;;;;;;5114679;28;20820;-71
2021/05/08 04:51:55;;;;;;;5.43;2.43;;;16.50;1.00;;;;;;5114683;28;20845;-70
2021/05/08 04:54:23;;;;;;;3.47;2.60;;;16.50;1.00;;;;;;5115328;28;20431;-70
2021/05/08 04:56:50;;;;;;;2.50;1.77;;;17.00;1.00;;;;;;5113212;28;20420;-70
2021/05/08 04:59:17;;;;;;;1.50;1.40;;;17.50;1.00;;;;;;5113090;28;20411;-70
2021/05/08 05:01:45;;;;;;;5.13;2.93;;;17.40;1.00;;;;;;5114348;28;20773;-70
2021/05/08 05:04:13;;;;;;;3.77;2.03;;;17.80;1.00;;;;;;5112725;28;20477;-70
2021/05/08 05:06:40;;;;;;;2.93;2.20;;;17.40;1.00;;;;;;5114595;28;20466;-70
2021/05/08 05:09:07;;;;;;;7.13;1.97;;;15.50;1.00;;;;;;5114541;28;20462;-70
2021/05/08 05:11:34;;;;;;;2.03;1.77;;;13.70;1.00;;;;;;5113115;28;20773;-69
2021/05/08 05:14:02;;;;;;;5.30;2.67;;;12.10;1.00;;;;;;5114091;28;20482;-70
2021/05/08 05:16:29;;;;;;;3.70;2.25;;;10.90;1.00;;;;;;5114288;28;20199;-71
2021/05/08 05:18:57;;;;;;;3.45;2.30;;;10.60;7.20;;;;;;5114034;28;20189;-70
2021/05/08 05:21:24;;;;;;;2.33;1.95;;;10.00;39.00;;;;;;5112687;28;20631;-70
2021/05/08 05:23:51;;;;;;;3.33;2.53;;;9.30;99.90;;;;;;5113592;28;20842;-70
2021/05/08 05:26:18;;;;;;;2.58;2.03;;;8.80;99.90;;;;;;5113810;28;20540;-71
2021/05/08 05:28:45;;;;;;;2.45;2.00;;;8.50;99.90;;;;;;5113620;28;20263;-70
2021/05/08 05:31:14;;;;;;;1.98;1.65;;;8.40;1.00;;;;;;5113349;28;20187;-69
2021/05/08 05:33:41;;;;;;;2.47;2.28;;;8.10;1.00;;;;;;5113638;28;20213;-70
2021/05/08 05:36:10;;;;;;;3.47;2.50;;;8.00;99.90;;;;;;5113440;28;20496;-71
2021/05/08 05:38:37;;;;;;;3.25;2.95;;;8.00;99.90;;;;;;5114272;28;20187;-71
2021/05/08 05:41:04;;;;;;;2.55;2.35;;;8.10;99.90;;;;;;5113735;28;20190;-72
2021/05/08 05:43:31;;;;;;;2.30;2.10;;;7.80;99.90;;;;;;5114010;28;20206;-72
2021/05/08 05:45:58;;;;;;;3.38;2.40;;;7.70;99.90;;;;;;5112838;28;20179;-71
2021/05/08 05:48:25;;;;;;;2.95;2.40;;;7.80;99.90;;;;;;5114087;28;20195;-71
2021/05/08 05:50:53;;;;;;;2.55;1.95;;;7.80;99.90;;;;;;5114374;28;20194;-72
2021/05/08 05:53:21;;;;;;;2.30;1.90;;;7.90;99.90;;;;;;5112444;28;20213;-72
2021/05/08 05:55:48;;;;;;;4.50;2.00;;;8.00;99.90;;;;;;5113213;28;20194;-71
2021/05/08 05:58:15;;;;;;;2.80;2.20;;;8.20;99.90;;;;;;5113867;28;20230;-71
2021/05/08 06:00:42;;;;;;;4.40;2.08;;;8.50;99.90;;;;;;5113804;28;20186;-71
2021/05/08 06:03:09;;;;;;;3.40;1.60;;;8.80;99.90;;;;;;5113700;28;20207;-71
2021/05/08 06:05:36;;;;;;;3.08;1.55;;;8.80;99.90;;;;;;5113783;28;20229;-72
2021/05/08 06:08:04;;;;;;;2.95;1.77;;;8.90;99.90;;;;;;5113488;28;20186;-71
2021/05/08 06:10:32;;;;;;;8.18;2.10;;;9.00;99.90;;;;;;5113858;28;20224;-71
2021/05/08 06:12:59;;;;;;;4.78;2.38;;;9.10;99.90;;;;;;5112381;28;20253;-72
2021/05/08 06:15:27;;;;;;;2.15;1.75;;;9.20;99.90;;;;;;5113176;28;20191;-72
2021/05/08 06:17:54;;;;;;;5.78;2.65;;;9.30;99.90;;;;;;5113236;28;20645;-71
2021/05/08 06:20:21;;;;;;;3.75;3.10;;;9.50;99.90;;;;;;5113114;28;20179;-71
2021/05/08 06:22:49;;;;;;;3.55;2.10;;;9.40;99.90;;;;;;5112992;28;20211;-71
2021/05/08 06:25:16;;;;;;;5.25;1.67;;;9.30;99.90;;;;;;5113134;28;20205;-73
2021/05/08 06:27:44;;;;;;;4.40;2.22;;;9.20;99.90;;;;;;5111973;28;20285;-72
2021/05/08 06:30:12;;;;;;;1.90;1.60;;;9.30;99.90;;;;;;5113243;28;20191;-72
2021/05/08 06:32:39;;;;;;;3.30;2.05;;;9.30;99.90;;;;;;5112931;28;20222;-70
2021/05/08 06:35:07;;;;;;;2.63;1.80;;;9.30;99.90;;;;;;5113235;28;20579;-72
2021/05/08 06:37:34;;;;;;;5.35;1.70;;;9.30;99.90;;;;;;5114047;28;20222;-72
2021/05/08 06:40:02;;;;;;;2.05;1.67;;;9.40;99.90;;;;;;5112447;28;20239;-73
2021/05/08 06:42:29;;;;;;;3.05;1.65;;;9.40;99.90;;;;;;5113518;28;20210;-72
2021/05/08 06:44:57;;;;;;;1.85;1.63;;;9.40;99.90;;;;;;5112695;28;20193;-72
2021/05/08 06:47:24;;;;;;;1.40;1.30;;;9.60;99.90;;;;;;5111605;28;20712;-71
2021/05/08 06:49:52;;;;;;;5.13;1.92;;;9.60;99.90;;;;;;5112993;28;20199;-73
2021/05/08 06:52:19;;;;;;;2.03;1.42;;;9.30;99.90;;;;;;5112729;28;20233;-70
2021/05/08 06:54:46;;;;;;;4.70;2.08;;;9.10;99.90;;;;;;5112689;28;20179;-72
2021/05/08 06:57:13;;;;;;;2.13;1.00;;;9.20;99.90;;;;;;5113257;28;20189;-71
2021/05/08 06:59:41;;;;;;;1.83;1.38;;;9.30;99.90;;;;;;5114558;22;20226;-68
2021/05/08 07:02:09;;;;;;;7.07;2.75;;;9.30;99.90;;;;;;5098575;28;20238;-67
2021/05/08 07:04:36;;;;;;;4.13;1.80;;;9.20;99.90;;;;;;5113192;28;20183;-69
2021/05/08 07:07:03;;;;;;;3.17;1.90;;;9.20;99.90;;;;;;5113192;28;20551;-68
2021/05/08 07:09:30;;;;;;;4.32;1.52;;;9.10;99.90;;;;;;5113348;28;20199;-68
2021/05/08 07:11:58;;;;;;;2.65;1.40;;;9.10;99.90;;;;;;5115381;27;20495;-69
2021/05/08 07:14:25;;;;;;;3.58;1.42;;;9.10;99.90;;;;;;5114690;27;20204;-68
2021/05/08 07:16:57;;;;;;;7.80;1.40;;;9.20;99.90;;;;;;5133029;27;20170;-68
2021/05/08 07:19:25;;;;;;;3.40;1.98;;;9.20;99.90;;;;;;5133347;27;20257;-67
2021/05/08 07:21:53;;;;;;;3.10;1.92;;;9.30;99.90;;;;;;5114637;27;20210;-68
2021/05/08 07:24:23;;;;;;;4.05;1.40;;;9.30;99.90;;;;;;5133111;27;20178;-68
2021/05/08 07:26:50;;;;;;;2.22;2.03;;;9.30;99.90;;;;;;5133382;27;20586;-68
2021/05/08 07:29:18;;;;;;;3.55;1.67;;;9.40;99.90;;;;;;5132981;27;20201;-68
2021/05/08 07:31:46;;;;;;;2.80;1.77;;;9.40;99.90;;;;;;5133605;27;20202;-68
2021/05/08 07:34:13;;;;;;;1.75;1.45;;;9.50;99.90;;;;;;5136531;27;20329;-68
2021/05/08 07:36:41;;;;;;;3.55;1.95;;;9.80;99.90;;;;;;5132735;27;20186;-68
2021/05/08 07:39:09;;;;;;;4.63;1.90;;;10.00;99.90;;;;;;5132890;27;20181;-68
2021/05/08 07:41:36;;;;;;;4.32;2.15;;;10.10;99.90;;;;;;5132280;27;20198;-68
2021/05/08 07:44:04;;;;;;;2.85;1.40;;;10.10;99.90;;;;;;5114199;28;20206;-67
2021/05/08 07:46:31;;;;;;;2.97;1.35;;;10.20;99.90;;;;;;5133899;27;20228;-67
2021/05/08 07:48:59;;;;;;;2.92;2.03;;;10.30;99.90;;;;;;5116342;27;20202;-68
2021/05/08 07:51:26;;;;;;;2.47;1.67;;;10.40;99.90;;;;;;5134850;27;20186;-68
2021/05/08 07:53:54;;;;;;;4.53;1.80;;;10.40;99.90;;;;;;5135229;27;20190;-68
2021/05/08 07:56:22;;;;;;;2.75;1.23;;;10.30;99.90;;;;;;5134147;27;20199;-67
2021/05/08 07:58:49;;;;;;;1.65;1.10;;;10.30;99.90;;;;;;5134053;27;20269;-68
2021/05/08 08:01:17;;;;;;;3.33;1.42;;;10.50;99.90;;;;;;5133688;28;20235;-67
2021/05/08 08:03:45;;;;;;;3.47;1.67;;;10.60;99.90;;;;;;5134707;28;20202;-68
2021/05/08 08:06:12;;;;;;;1.27;1.17;;;10.80;99.90;;;;;;5115298;28;20202;-68
2021/05/08 08:08:40;;;;;;;2.55;2.15;;;10.80;99.90;;;;;;5133472;28;20293;-67
2021/05/08 08:11:08;;;;;;;5.13;1.63;;;10.90;99.90;;;;;;5132831;28;20186;-68
2021/05/08 08:13:35;;;;;;;3.25;1.95;;;10.60;99.90;;;;;;5132186;28;20205;-70
2021/05/08 08:16:02;;;;;;;3.00;1.42;;;10.40;99.90;;;;;;5132619;28;20184;-69
2021/05/08 08:18:29;;;;;;;7.05;1.67;;;10.30;99.90;;;;;;5132174;28;20234;-68
2021/05/08 08:20:56;;;;;;;2.03;1.50;;;10.30;99.90;;;;;;5113778;28;20213;-68
2021/05/08 08:23:24;;;;;;;3.90;1.90;;;10.50;99.90;;;;;;5132194;27;20210;-68
2021/05/08 08:25:51;;;;;;;1.85;1.55;;;10.60;99.90;;;;;;5132299;28;20197;-67
2021/05/08 08:28:19;;;;;;;3.58;1.63;;;11.00;99.90;;;;;;5131986;28;20184;-68
2021/05/08 08:30:46;;;;;;;6.72;5.18;;;11.20;99.90;;;;;;5113455;28;20213;-68
2021/05/08 08:33:13;;;;;;;1.60;1.50;;;11.20;99.90;;;;;;5132003;28;20237;-70
2021/05/08 08:35:41;;;;;;;3.50;2.30;;;11.30;99.90;;;;;;5128267;28;20658;-69
2021/05/08 08:38:09;;;;;;;3.10;2.37;;;11.40;99.90;;;;;;5122945;28;20425;-68
2021/05/08 08:40:36;;;;;;;4.67;3.23;;;12.00;99.90;;;;;;5122597;28;20516;-67
2021/05/08 08:43:04;;;;;;;9.43;3.20;;;12.60;99.90;;;;;;5116119;28;20852;-67
2021/05/08 08:45:34;;;;;;;3.00;1.87;;;12.80;99.90;;;;;;5131527;28;20412;-68
2021/05/08 08:48:01;;;;;;;3.53;1.97;;;12.60;99.90;;;;;;5111819;28;20812;-69
2021/05/08 08:50:31;;;;;;;1.80;1.70;;;12.80;99.90;;;;;;5110609;28;20457;-70
2021/05/08 08:53:00;;;;;;;5.03;2.83;;;12.50;99.90;;;;;;5110373;28;20532;-69
2021/05/08 08:55:27;;;;;;;2.70;2.50;;;12.20;99.90;;;;;;5111334;28;20428;-69
2021/05/08 08:57:56;;;;;;;3.13;2.37;;;12.00;99.90;;;;;;5115595;28;20981;-69
2021/05/08 09:00:23;;;;;;;3.10;2.20;;;11.70;99.90;;;;;;5114835;28;20463;-69
2021/05/08 09:02:52;;;;;;;2.47;1.60;;;11.90;99.90;;;;;;5112121;28;20444;-69
2021/05/08 09:05:22;;;;;;;3.27;1.93;;;12.30;99.90;;;;;;5113484;28;20186;-68
2021/05/08 09:07:51;;;;;;;2.27;2.07;;;12.80;99.90;;;;;;5121139;27;20420;-68
2021/05/08 09:10:26;;;;;;;2.63;1.87;;;13.20;99.90;;;;;;5123241;27;20564;-68
2021/05/08 09:12:55;;;;;;;5.10;1.77;;;13.60;99.90;;;;;;5124636;27;20462;-68
2021/05/08 09:15:36;;;;;;;1.73;1.27;;;13.70;99.90;;;;;;5119757;27;20418;-67
2021/05/08 09:18:06;;;;;;;6.30;1.53;;;13.50;99.90;;;;;;5135091;27;20410;-68
2021/05/08 09:20:44;;;;;;;2.30;1.33;;;13.40;99.90;;;;;;5134787;27;20394;-68
2021/05/08 09:23:22;;;;;;;2.47;1.77;;;13.50;99.90;;;;;;5134571;27;20433;-68
2021/05/08 09:26:04;;;;;;;2.40;1.73;;;13.80;99.90;;;;;;5134644;27;20488;-69
2021/05/08 09:28:34;;;;;;;3.80;1.93;;;13.90;99.90;;;;;;5134715;27;20457;-68
2021/05/08 09:31:02;;;;;;;2.03;1.60;;;14.20;99.90;;;;;;5134231;27;20394;-69
2021/05/08 09:33:31;;;;;;;2.27;1.73;;;14.70;99.90;;;;;;5134487;27;20429;-68
2021/05/08 09:36:06;;;;;;;2.47;1.70;;;14.80;99.90;;;;;;5134225;27;20447;-68
2021/05/08 09:38:36;;;;;;;1.40;1.13;;;14.50;99.90;;;;;;5134390;27;20410;-68
2021/05/08 09:41:05;;;;;;;2.90;2.33;;;14.30;99.90;;;;;;5115869;27;20406;-68
2021/05/08 09:43:34;;;;;;;2.67;2.00;;;14.00;99.90;;;;;;5134027;27;20418;-68
2021/05/08 09:46:01;;;;;;;2.13;1.90;;;13.80;99.90;;;;;;5122680;27;20425;-68
2021/05/08 09:48:31;;;;;;;4.13;2.73;;;13.60;99.90;;;;;;5116169;27;20414;-69
2021/05/08 09:51:21;;;;;;;5.13;1.80;;;13.60;99.90;;;;;;5116003;27;20837;-68
2021/05/08 09:53:50;;;;;;;4.50;1.90;;;13.80;99.90;;;;;;5102207;27;20427;-68
2021/05/08 09:56:34;;;;;;;5.67;1.90;;;13.60;99.90;;;;;;5113826;28;20384;-68
2021/05/08 09:59:23;;;;;;;2.20;2.00;;;13.80;99.90;;;;;;5115966;27;20940;-68
2021/05/08 10:02:10;;;;;;;4.00;1.90;;;14.20;99.90;;;;;;5093316;28;20556;-68
2021/05/08 10:04:44;;;;;;;3.90;2.17;;;14.10;99.90;;;;;;5092970;28;20422;-67
2021/05/08 10:07:13;;;;;;;3.20;1.70;;;14.50;99.90;;;;;;5092313;28;20392;-67
2021/05/08 10:09:41;;;;;;;2.27;1.93;;;14.60;99.90;;;;;;5093423;28;20466;-67
2021/05/08 10:12:10;;;;;;;2.47;2.27;;;14.80;99.90;;;;;;5092295;28;20577;-67
2021/05/08 10:14:38;;;;;;;2.10;1.57;;;14.50;99.90;;;;;;5074313;28;20408;-67
2021/05/08 10:17:19;;;;;;;3.20;2.00;;;14.00;99.90;;;;;;5092506;28;20404;-67
2021/05/08 10:19:49;;;;;;;3.17;2.00;;;13.80;99.90;;;;;;5092439;28;20504;-68
2021/05/08 10:22:17;;;;;;;5.13;2.40;;;13.40;99.90;;;;;;5092383;28;20448;-68
2021/05/08 10:24:46;;;;;;;5.13;1.77;;;13.60;99.90;;;;;;5091581;28;20448;-68
2021/05/08 10:27:14;;;;;;;1.63;1.53;;;14.00;99.90;;;;;;5089940;28;20411;-68
2021/05/08 10:29:43;;;;;;;4.90;2.20;;;14.30;99.90;;;;;;5092295;28;20461;-68
2021/05/08 10:32:12;;;;;;;3.27;2.33;;;14.30;99.90;;;;;;5091557;28;20437;-68
2021/05/08 10:34:53;;;;;;;2.27;1.77;;;14.50;99.90;;;;;;5091327;28;20421;-68
2021/05/08 10:37:21;;;;;;;4.60;1.80;;;14.10;99.90;;;;;;5091484;28;20409;-68
2021/05/08 10:39:58;;;;;;;2.40;2.10;;;14.00;99.90;;;;;;5091515;28;20398;-69
2021/05/08 10:42:33;;;;;;;2.13;1.70;;;14.10;99.90;;;;;;5090987;28;20430;-69
2021/05/08 10:45:02;;;;;;;3.80;1.70;;;13.80;99.90;;;;;;5091507;28;20424;-68
2021/05/08 10:48:06;;;;;;;3.90;2.43;;;13.40;99.90;;;;;;5091783;28;20384;-68
2021/05/08 10:50:42;;;;;;;2.87;1.83;;;13.70;99.90;;;;;;5092480;28;20457;-69
2021/05/08 10:53:11;;;;;;;3.67;2.70;;;13.90;99.90;;;;;;5110924;28;20444;-69
2021/05/08 10:55:49;;;;;;;2.30;1.67;;;14.30;99.90;;;;;;5111568;27;20460;-68
2021/05/08 10:58:33;;;;;;;3.77;2.40;;;14.30;99.90;;;;;;5111741;28;20834;-69
2021/05/08 11:01:02;;;;;;;2.63;1.73;;;14.20;99.90;;;;;;5111476;28;20445;-68
2021/05/08 11:03:30;;;;;;;2.50;2.20;;;14.30;99.90;;;;;;5111462;28;20546;-68
2021/05/08 11:06:02;;;;;;;2.80;2.30;;;14.60;99.90;;;;;;5111616;28;20406;-68
2021/05/08 11:08:46;;;;;;;2.00;1.80;;;14.80;99.90;;;;;;5111889;28;20470;-68
2021/05/08 11:11:16;;;;;;;7.30;2.43;;;15.30;99.90;;;;;;5111380;28;20427;-68
2021/05/08 11:13:48;;;;;;;2.37;2.00;;;15.40;99.90;;;;;;5111222;28;20411;-68
2021/05/08 11:16:17;;;;;;;6.60;2.53;;;15.50;99.90;;;;;;5111260;28;20491;-69
2021/05/08 11:18:46;;;;;;;5.03;2.80;;;15.30;99.90;;;;;;5110992;28;20380;-68
2021/05/08 11:21:39;;;;;;;2.63;2.43;;;15.00;99.90;;;;;;5093154;28;20403;-68
2021/05/08 11:24:11;;;;;;;2.77;2.10;;;14.30;99.90;;;;;;5111157;28;20400;-68
2021/05/08 11:26:44;;;;;;;3.90;2.47;;;14.20;99.90;;;;;;5111479;28;20402;-68
2021/05/08 11:29:16;;;;;;;5.20;3.40;;;14.00;99.90;;;;;;5111468;28;20430;-69
2021/05/08 11:31:46;;;;;;;9.80;2.70;;;14.00;99.90;;;;;;5111308;28;20442;-69
2021/05/08 11:34:16;;;;;;;4.03;2.73;;;14.10;99.90;;;;;;5111818;28;20799;-68
2021/05/08 11:36:46;;;;;;;2.70;2.50;;;14.00;99.90;;;;;;5111729;28;20402;-68
2021/05/08 11:39:15;;;;;;;2.07;1.90;;;13.90;99.90;;;;;;5111555;28;20438;-70
2021/05/08 11:41:42;;;;;;;2.87;2.17;;;14.00;99.90;;;;;;5092924;28;20403;-68
2021/05/08 11:44:19;;;;;;;3.13;2.43;;;14.40;99.90;;;;;;5111406;28;20482;-70
2021/05/08 11:46:55;;;;;;;2.87;2.20;;;14.20;99.90;;;;;;5111347;28;20397;-69
2021/05/08 11:49:27;;;;;;;2.50;2.30;;;14.40;99.90;;;;;;5111154;28;20473;-68
2021/05/08 11:51:56;;;;;;;2.50;2.13;;;14.60;99.90;;;;;;5110457;28;20427;-68
2021/05/08 11:54:23;;;;;;;3.70;2.37;;;14.90;99.90;;;;;;5117883;27;20522;-68
2021/05/08 11:56:50;;;;;;;4.57;3.60;;;15.10;99.90;;;;;;5121913;27;20437;-69
2021/05/08 11:59:30;;;;;;;3.80;2.57;;;15.10;99.90;;;;;;5111790;28;20418;-68
2021/05/08 12:02:16;;;;;;;2.60;2.40;;;15.30;99.90;;;;;;5109810;28;20454;-69
2021/05/08 12:04:46;;;;;;;2.37;1.77;;;15.40;99.90;;;;;;5109924;28;20428;-68
2021/05/08 12:07:14;;;;;;;3.80;2.50;;;15.60;99.90;;;;;;5110353;28;20391;-67
2021/05/08 12:09:41;;;;;;;2.87;2.57;;;15.20;99.90;;;;;;5111714;28;20871;-69
2021/05/08 12:12:09;;;;;;;5.67;2.20;;;14.70;99.90;;;;;;5111874;28;20465;-68
2021/05/08 12:14:41;;;;;;;2.43;2.07;;;14.10;99.90;;;;;;5111750;28;20403;-68
2021/05/08 12:17:09;;;;;;;2.90;2.07;;;14.20;99.90;;;;;;5112239;28;20423;-69
2021/05/08 12:19:38;;;;;;;2.47;1.77;;;14.30;99.90;;;;;;5111650;28;20410;-69
2021/05/08 12:22:06;;;;;;;2.07;1.83;;;14.60;99.90;;;;;;5111612;28;20485;-68
2021/05/08 12:24:34;;;;;;;3.20;2.90;;;15.10;99.90;;;;;;5111931;28;20454;-68
2021/05/08 12:27:01;;;;;;;4.63;3.00;;;15.60;99.90;;;;;;5111116;28;20430;-71
2021/05/08 12:29:56;;;;;;;2.67;2.10;;;15.40;99.90;;;;;;5110804;28;20939;-68
2021/05/08 12:32:23;;;;;;;2.73;1.93;;;15.70;99.90;;;;;;5115515;28;20784;-67
2021/05/08 12:34:54;;;;;;;3.23;2.70;;;16.10;99.90;;;;;;5117225;28;20496;-67
2021/05/08 12:37:22;;;;;;;2.37;1.83;;;16.20;99.90;;;;;;5115974;28;20944;-68
2021/05/08 12:39:51;;;;;;;5.10;1.80;;;16.50;99.90;;;;;;5116367;28;20420;-68
2021/05/08 12:42:19;;;;;;;3.03;1.93;;;16.50;99.90;;;;;;5116411;28;20426;-68
2021/05/08 12:44:48;;;;;;;4.40;2.60;;;16.50;99.90;;;;;;5116890;28;20387;-68
2021/05/08 12:47:17;;;;;;;3.73;2.27;;;16.40;99.90;;;;;;5117862;28;20512;-70
2021/05/08 12:50:05;;;;;;;2.90;2.60;;;16.50;99.90;;;;;;5118479;28;20871;-70
2021/05/08 12:52:33;;;;;;;3.00;2.43;;;16.70;99.90;;;;;;5119177;28;20454;-70
2021/05/08 12:55:02;;;;;;;2.77;2.07;;;16.70;99.90;;;;;;5124249;28;20472;-70
2021/05/08 12:57:33;;;;;;;3.93;2.20;;;16.90;99.90;;;;;;5122778;28;20447;-68
2021/05/08 13:00:03;;;;;;;3.13;2.67;;;17.10;99.90;;;;;;5119887;28;20415;-73
2021/05/08 13:02:31;;;;;;;2.43;2.10;;;17.10;99.90;;;;;;5120526;28;20497;-69
2021/05/08 13:05:11;;;;;;;2.60;1.93;;;17.30;99.90;;;;;;5120626;28;20427;-69